Providence, Rhode Island
Traffic Map
Current Weather Conditions
Providence, Rhode Island
Scattered Clouds Light Rain
Scattered Clouds
79°
Feels Like: 82°
Wind Chill: 79° Ceiling: Unl
Heat Index: 82° Visibility: 10mi
Dew Point: 72° Wind: 3mph
Humidity: 79% Direction: ° ()
Pressure: 29.99in Gusts: 0mph
Raw Report DataKPVD 011351Z VRB03KT 10SM -RA FEW014 SCT120 SCT250 26/22 A2999 RMK AO2 RAB51 SLP156 P0000 T02610222 $
Traffic Incident Summary
Active as of:
Severity:
Category:
InformationThere was an issue retrieving the traffic information for this location. Please try a different location or try again shortly.
Advertisements
Track Severe Weather on mobile